sensor_id;sensor_type;location;lat;lon;timestamp;pressure;altitude;pressure_sealevel;temperature;humidity
64841;BME280;51307;52.162;7.560;2024-03-25T00:01:25;100044.00;;;5.37;85.16
64841;BME280;51307;52.162;7.560;2024-03-25T00:03:50;100045.03;;;5.17;86.73
64841;BME280;51307;52.162;7.560;2024-03-25T00:06:16;100036.91;;;5.28;85.37
64841;BME280;51307;52.162;7.560;2024-03-25T00:08:41;100039.53;;;5.66;84.11
64841;BME280;51307;52.162;7.560;2024-03-25T00:11:07;100040.66;;;5.63;83.75
64841;BME280;51307;52.162;7.560;2024-03-25T00:13:33;100043.63;;;5.22;85.21
64841;BME280;51307;52.162;7.560;2024-03-25T00:15:58;100045.00;;;5.27;84.77
64841;BME280;51307;52.162;7.560;2024-03-25T00:18:24;100050.63;;;5.14;85.73
64841;BME280;51307;52.162;7.560;2024-03-25T00:20:49;100053.88;;;5.45;82.96
64841;BME280;51307;52.162;7.560;2024-03-25T00:23:16;100053.53;;;5.58;83.26
64841;BME280;51307;52.162;7.560;2024-03-25T00:25:42;100060.00;;;4.98;84.71
64841;BME280;51307;52.162;7.560;2024-03-25T00:28:07;100057.09;;;5.49;83.62
64841;BME280;51307;52.162;7.560;2024-03-25T00:30:32;100061.22;;;5.23;85.04
64841;BME280;51307;52.162;7.560;2024-03-25T00:32:58;100056.88;;;5.22;84.69
64841;BME280;51307;52.162;7.560;2024-03-25T00:35:23;100069.84;;;5.26;84.07
64841;BME280;51307;52.162;7.560;2024-03-25T00:37:49;100059.44;;;5.52;83.55
64841;BME280;51307;52.162;7.560;2024-03-25T00:40:14;100059.31;;;4.96;85.37
64841;BME280;51307;52.162;7.560;2024-03-25T00:42:40;100066.94;;;5.29;84.67
64841;BME280;51307;52.162;7.560;2024-03-25T00:45:06;100069.81;;;5.45;83.28
64841;BME280;51307;52.162;7.560;2024-03-25T00:47:32;100064.72;;;5.14;84.82
64841;BME280;51307;52.162;7.560;2024-03-25T00:49:58;100070.97;;;5.33;83.45
64841;BME280;51307;52.162;7.560;2024-03-25T00:52:24;100073.25;;;5.08;84.91
64841;BME280;51307;52.162;7.560;2024-03-25T00:54:49;100062.53;;;5.47;83.74
64841;BME280;51307;52.162;7.560;2024-03-25T00:57:15;100060.09;;;5.26;84.80
64841;BME280;51307;52.162;7.560;2024-03-25T00:59:41;100066.44;;;4.86;85.66
64841;BME280;51307;52.162;7.560;2024-03-25T01:02:06;100069.69;;;5.37;85.31
64841;BME280;51307;52.162;7.560;2024-03-25T01:04:33;100065.63;;;4.85;86.26
64841;BME280;51307;52.162;7.560;2024-03-25T01:06:59;100063.75;;;5.05;85.33
64841;BME280;51307;52.162;7.560;2024-03-25T01:09:24;100068.81;;;4.89;85.81
64841;BME280;51307;52.162;7.560;2024-03-25T01:11:51;100069.53;;;5.38;84.88
64841;BME280;51307;52.162;7.560;2024-03-25T01:14:16;100072.38;;;5.27;84.92
64841;BME280;51307;52.162;7.560;2024-03-25T01:16:42;100074.78;;;5.11;87.23
64841;BME280;51307;52.162;7.560;2024-03-25T01:19:08;100076.16;;;5.25;85.67
64841;BME280;51307;52.162;7.560;2024-03-25T01:21:34;100084.44;;;4.82;87.60
64841;BME280;51307;52.162;7.560;2024-03-25T01:24:00;100077.84;;;5.16;85.98
64841;BME280;51307;52.162;7.560;2024-03-25T01:26:25;100073.34;;;5.16;85.26
64841;BME280;51307;52.162;7.560;2024-03-25T01:28:52;100086.47;;;5.28;86.21
64841;BME280;51307;52.162;7.560;2024-03-25T01:31:17;100084.69;;;4.99;87.35
64841;BME280;51307;52.162;7.560;2024-03-25T01:33:43;100083.31;;;5.04;86.30
64841;BME280;51307;52.162;7.560;2024-03-25T01:36:08;100087.66;;;5.43;86.33
64841;BME280;51307;52.162;7.560;2024-03-25T01:38:36;100089.56;;;5.13;87.62
64841;BME280;51307;52.162;7.560;2024-03-25T01:41:09;100088.56;;;5.24;86.10
64841;BME280;51307;52.162;7.560;2024-03-25T01:43:35;100087.91;;;5.02;88.20
64841;BME280;51307;52.162;7.560;2024-03-25T01:46:01;100089.34;;;4.87;89.72
64841;BME280;51307;52.162;7.560;2024-03-25T01:48:26;100090.06;;;5.36;87.02
64841;BME280;51307;52.162;7.560;2024-03-25T01:50:53;100094.22;;;4.82;88.74
64841;BME280;51307;52.162;7.560;2024-03-25T01:53:19;100082.69;;;5.30;86.15
64841;BME280;51307;52.162;7.560;2024-03-25T01:55:48;100091.97;;;4.87;88.03
64841;BME280;51307;52.162;7.560;2024-03-25T01:58:14;100091.69;;;4.70;88.55
64841;BME280;51307;52.162;7.560;2024-03-25T02:00:41;100086.09;;;5.03;87.66
64841;BME280;51307;52.162;7.560;2024-03-25T02:03:08;100091.09;;;5.16;85.72
64841;BME280;51307;52.162;7.560;2024-03-25T02:05:34;100099.50;;;5.11;85.19
64841;BME280;51307;52.162;7.560;2024-03-25T02:08:01;100098.38;;;5.14;87.13
64841;BME280;51307;52.162;7.560;2024-03-25T02:10:29;100091.38;;;5.13;86.90
64841;BME280;51307;52.162;7.560;2024-03-25T02:12:55;100111.84;;;4.32;88.77
64841;BME280;51307;52.162;7.560;2024-03-25T02:15:21;100112.06;;;4.70;87.93
64841;BME280;51307;52.162;7.560;2024-03-25T02:17:46;100097.00;;;4.90;87.48
64841;BME280;51307;52.162;7.560;2024-03-25T02:20:12;100093.66;;;4.98;86.37
64841;BME280;51307;52.162;7.560;2024-03-25T02:22:41;100101.31;;;4.71;87.79
64841;BME280;51307;52.162;7.560;2024-03-25T02:25:10;100103.25;;;5.09;84.89
64841;BME280;51307;52.162;7.560;2024-03-25T02:27:37;100107.03;;;4.77;87.13
64841;BME280;51307;52.162;7.560;2024-03-25T02:32:29;100099.22;;;5.04;84.99
64841;BME280;51307;52.162;7.560;2024-03-25T02:34:55;100105.19;;;5.26;84.28
64841;BME280;51307;52.162;7.560;2024-03-25T02:37:21;100109.25;;;5.20;83.62
64841;BME280;51307;52.162;7.560;2024-03-25T02:39:47;100103.41;;;4.78;85.40
64841;BME280;51307;52.162;7.560;2024-03-25T02:42:12;100102.69;;;5.15;84.56
64841;BME280;51307;52.162;7.560;2024-03-25T02:44:38;100103.53;;;5.15;83.85
64841;BME280;51307;52.162;7.560;2024-03-25T02:47:04;100090.41;;;5.14;83.40
64841;BME280;51307;52.162;7.560;2024-03-25T02:49:30;100112.19;;;4.59;85.73
64841;BME280;51307;52.162;7.560;2024-03-25T02:51:55;100117.38;;;4.99;83.93
64841;BME280;51307;52.162;7.560;2024-03-25T02:54:21;100111.22;;;4.89;85.63
64841;BME280;51307;52.162;7.560;2024-03-25T02:56:47;100113.19;;;4.87;84.74
64841;BME280;51307;52.162;7.560;2024-03-25T02:59:12;100111.34;;;4.87;84.32
64841;BME280;51307;52.162;7.560;2024-03-25T03:01:37;100100.28;;;5.21;83.37
64841;BME280;51307;52.162;7.560;2024-03-25T03:04:03;100106.63;;;4.71;84.67
64841;BME280;51307;52.162;7.560;2024-03-25T03:06:28;100110.66;;;4.95;84.61
64841;BME280;51307;52.162;7.560;2024-03-25T03:08:54;100116.94;;;4.84;85.01
64841;BME280;51307;52.162;7.560;2024-03-25T03:11:20;100114.44;;;4.83;85.30
64841;BME280;51307;52.162;7.560;2024-03-25T03:13:45;100112.63;;;4.74;84.63
64841;BME280;51307;52.162;7.560;2024-03-25T03:16:11;100119.88;;;4.62;85.99
64841;BME280;51307;52.162;7.560;2024-03-25T03:18:37;100135.44;;;4.45;86.11
64841;BME280;51307;52.162;7.560;2024-03-25T03:21:03;100113.72;;;4.51;85.95
64841;BME280;51307;52.162;7.560;2024-03-25T03:23:28;100122.94;;;4.67;86.37
64841;BME280;51307;52.162;7.560;2024-03-25T03:25:53;100120.69;;;4.62;86.67
64841;BME280;51307;52.162;7.560;2024-03-25T03:28:19;100114.72;;;4.70;86.85
64841;BME280;51307;52.162;7.560;2024-03-25T03:30:44;100119.56;;;4.65;84.94
64841;BME280;51307;52.162;7.560;2024-03-25T03:33:10;100124.47;;;4.79;85.38
64841;BME280;51307;52.162;7.560;2024-03-25T03:35:36;100123.22;;;4.83;85.39
64841;BME280;51307;52.162;7.560;2024-03-25T03:38:02;100120.16;;;4.78;85.49
64841;BME280;51307;52.162;7.560;2024-03-25T03:40:29;100131.44;;;4.61;84.97
64841;BME280;51307;52.162;7.560;2024-03-25T03:42:55;100135.00;;;4.40;86.99
64841;BME280;51307;52.162;7.560;2024-03-25T03:45:23;100124.03;;;4.84;85.39
64841;BME280;51307;52.162;7.560;2024-03-25T03:47:49;100126.56;;;5.05;84.46
64841;BME280;51307;52.162;7.560;2024-03-25T03:50:14;100126.84;;;4.92;83.82
64841;BME280;51307;52.162;7.560;2024-03-25T03:52:40;100138.28;;;4.53;87.24
64841;BME280;51307;52.162;7.560;2024-03-25T03:55:06;100137.59;;;4.71;86.15
64841;BME280;51307;52.162;7.560;2024-03-25T03:57:31;100138.97;;;4.85;84.97
64841;BME280;51307;52.162;7.560;2024-03-25T03:59:59;100139.56;;;4.79;85.81
64841;BME280;51307;52.162;7.560;2024-03-25T04:02:27;100143.31;;;4.76;85.65
64841;BME280;51307;52.162;7.560;2024-03-25T04:04:53;100136.88;;;4.98;84.99
64841;BME280;51307;52.162;7.560;2024-03-25T04:07:19;100151.94;;;4.68;85.66
64841;BME280;51307;52.162;7.560;2024-03-25T04:09:44;100155.47;;;4.79;86.57
64841;BME280;51307;52.162;7.560;2024-03-25T04:12:10;100153.63;;;5.09;84.13
64841;BME280;51307;52.162;7.560;2024-03-25T04:14:36;100149.16;;;4.80;85.72
64841;BME280;51307;52.162;7.560;2024-03-25T04:17:01;100164.81;;;4.83;85.07
64841;BME280;51307;52.162;7.560;2024-03-25T04:19:28;100154.19;;;5.02;85.00
64841;BME280;51307;52.162;7.560;2024-03-25T04:21:54;100159.34;;;4.75;86.03
64841;BME280;51307;52.162;7.560;2024-03-25T04:24:19;100165.06;;;4.80;85.95
64841;BME280;51307;52.162;7.560;2024-03-25T04:26:45;100156.84;;;4.93;85.31
64841;BME280;51307;52.162;7.560;2024-03-25T04:29:11;100156.28;;;4.79;86.25
64841;BME280;51307;52.162;7.560;2024-03-25T04:31:37;100153.34;;;4.92;86.52
64841;BME280;51307;52.162;7.560;2024-03-25T04:34:03;100156.34;;;4.38;87.86
64841;BME280;51307;52.162;7.560;2024-03-25T04:36:30;100155.47;;;4.38;88.60
64841;BME280;51307;52.162;7.560;2024-03-25T04:38:55;100148.47;;;4.97;85.37
64841;BME280;51307;52.162;7.560;2024-03-25T04:41:21;100154.63;;;5.08;85.25
64841;BME280;51307;52.162;7.560;2024-03-25T04:43:46;100162.13;;;4.53;86.05
64841;BME280;51307;52.162;7.560;2024-03-25T04:46:12;100154.31;;;5.11;84.68
64841;BME280;51307;52.162;7.560;2024-03-25T04:48:37;100147.06;;;5.13;84.23
64841;BME280;51307;52.162;7.560;2024-03-25T04:51:03;100145.25;;;4.84;85.35
64841;BME280;51307;52.162;7.560;2024-03-25T04:53:28;100150.84;;;5.10;83.41
64841;BME280;51307;52.162;7.560;2024-03-25T04:55:54;100148.34;;;4.69;85.61
64841;BME280;51307;52.162;7.560;2024-03-25T04:58:19;100158.22;;;4.67;85.30
64841;BME280;51307;52.162;7.560;2024-03-25T05:00:45;100157.78;;;4.62;85.96
64841;BME280;51307;52.162;7.560;2024-03-25T05:03:11;100152.22;;;4.95;84.99
64841;BME280;51307;52.162;7.560;2024-03-25T05:05:36;100165.19;;;4.59;86.50
64841;BME280;51307;52.162;7.560;2024-03-25T05:08:02;100168.66;;;4.49;87.11
64841;BME280;51307;52.162;7.560;2024-03-25T05:10:28;100160.59;;;4.61;87.04
64841;BME280;51307;52.162;7.560;2024-03-25T05:12:54;100163.13;;;4.82;86.74
64841;BME280;51307;52.162;7.560;2024-03-25T05:15:21;100161.19;;;5.03;85.23
64841;BME280;51307;52.162;7.560;2024-03-25T05:17:46;100154.06;;;4.94;85.17
64841;BME280;51307;52.162;7.560;2024-03-25T05:20:12;100162.28;;;5.01;85.65
64841;BME280;51307;52.162;7.560;2024-03-25T05:22:37;100162.00;;;4.94;85.06
64841;BME280;51307;52.162;7.560;2024-03-25T05:25:03;100155.19;;;5.11;84.40
64841;BME280;51307;52.162;7.560;2024-03-25T05:27:29;100169.28;;;5.02;84.72
64841;BME280;51307;52.162;7.560;2024-03-25T05:29:54;100174.75;;;4.40;87.26
64841;BME280;51307;52.162;7.560;2024-03-25T05:32:19;100183.16;;;4.55;87.27
64841;BME280;51307;52.162;7.560;2024-03-25T05:34:47;100187.41;;;4.36;88.16
64841;BME280;51307;52.162;7.560;2024-03-25T05:37:16;100196.03;;;4.79;87.45
64841;BME280;51307;52.162;7.560;2024-03-25T05:39:41;100192.72;;;4.87;87.25
64841;BME280;51307;52.162;7.560;2024-03-25T05:42:07;100194.38;;;4.88;84.93
64841;BME280;51307;52.162;7.560;2024-03-25T05:44:32;100204.13;;;4.78;87.03
64841;BME280;51307;52.162;7.560;2024-03-25T05:46:58;100201.06;;;4.72;85.75
64841;BME280;51307;52.162;7.560;2024-03-25T05:49:23;100203.84;;;4.61;86.71
64841;BME280;51307;52.162;7.560;2024-03-25T05:51:49;100199.56;;;4.89;85.61
64841;BME280;51307;52.162;7.560;2024-03-25T05:54:14;100196.03;;;4.99;84.35
64841;BME280;51307;52.162;7.560;2024-03-25T05:56:40;100197.59;;;4.82;85.77
64841;BME280;51307;52.162;7.560;2024-03-25T05:59:05;100199.97;;;5.24;84.18
64841;BME280;51307;52.162;7.560;2024-03-25T06:01:31;100210.31;;;4.98;86.15
64841;BME280;51307;52.162;7.560;2024-03-25T06:03:56;100202.06;;;5.01;84.28
64841;BME280;51307;52.162;7.560;2024-03-25T06:06:22;100203.44;;;5.15;84.40
64841;BME280;51307;52.162;7.560;2024-03-25T06:08:47;100204.16;;;4.47;87.05
64841;BME280;51307;52.162;7.560;2024-03-25T06:11:13;100199.66;;;4.68;86.24
64841;BME280;51307;52.162;7.560;2024-03-25T06:13:39;100203.72;;;4.92;85.06
64841;BME280;51307;52.162;7.560;2024-03-25T06:16:05;100199.97;;;5.04;85.20
64841;BME280;51307;52.162;7.560;2024-03-25T06:18:30;100203.59;;;5.23;83.69
64841;BME280;51307;52.162;7.560;2024-03-25T06:20:56;100209.03;;;5.02;84.35
64841;BME280;51307;52.162;7.560;2024-03-25T06:23:27;100208.03;;;4.93;85.52
64841;BME280;51307;52.162;7.560;2024-03-25T06:25:53;100205.84;;;5.28;83.17
64841;BME280;51307;52.162;7.560;2024-03-25T06:28:20;100202.91;;;5.11;84.33
64841;BME280;51307;52.162;7.560;2024-03-25T06:30:49;100200.94;;;5.33;82.93
64841;BME280;51307;52.162;7.560;2024-03-25T06:33:34;100198.56;;;5.49;82.65
64841;BME280;51307;52.162;7.560;2024-03-25T06:36:19;100195.50;;;5.34;83.18
64841;BME280;51307;52.162;7.560;2024-03-25T06:38:45;100213.50;;;5.31;83.87
64841;BME280;51307;52.162;7.560;2024-03-25T06:41:11;100215.03;;;4.94;84.63
64841;BME280;51307;52.162;7.560;2024-03-25T06:43:37;100211.00;;;5.29;84.86
64841;BME280;51307;52.162;7.560;2024-03-25T06:46:06;100203.31;;;5.26;84.76
64841;BME280;51307;52.162;7.560;2024-03-25T06:48:33;100215.03;;;5.04;85.90
64841;BME280;51307;52.162;7.560;2024-03-25T06:51:00;100206.69;;;5.09;86.08
64841;BME280;51307;52.162;7.560;2024-03-25T06:53:26;100208.31;;;5.39;84.47
64841;BME280;51307;52.162;7.560;2024-03-25T06:56:00;100203.03;;;5.39;84.30
64841;BME280;51307;52.162;7.560;2024-03-25T06:58:27;100213.44;;;5.70;82.93
64841;BME280;51307;52.162;7.560;2024-03-25T07:00:55;100222.88;;;5.45;83.63
64841;BME280;51307;52.162;7.560;2024-03-25T07:03:22;100219.94;;;5.48;84.76
64841;BME280;51307;52.162;7.560;2024-03-25T07:05:49;100217.28;;;5.18;84.35
64841;BME280;51307;52.162;7.560;2024-03-25T07:08:17;100218.94;;;5.29;85.27
64841;BME280;51307;52.162;7.560;2024-03-25T07:10:45;100215.19;;;5.22;86.03
64841;BME280;51307;52.162;7.560;2024-03-25T07:13:11;100224.00;;;5.42;85.88
64841;BME280;51307;52.162;7.560;2024-03-25T07:15:36;100220.47;;;5.61;84.54
64841;BME280;51307;52.162;7.560;2024-03-25T07:18:03;100223.72;;;5.35;85.34
64841;BME280;51307;52.162;7.560;2024-03-25T07:20:29;100230.69;;;5.27;86.95
64841;BME280;51307;52.162;7.560;2024-03-25T07:22:55;100229.25;;;5.62;85.21
64841;BME280;51307;52.162;7.560;2024-03-25T07:25:24;100226.19;;;5.56;85.27
64841;BME280;51307;52.162;7.560;2024-03-25T07:27:50;100229.00;;;5.45;85.96
64841;BME280;51307;52.162;7.560;2024-03-25T07:30:15;100227.47;;;5.62;85.64
64841;BME280;51307;52.162;7.560;2024-03-25T07:32:41;100227.69;;;5.79;84.47
64841;BME280;51307;52.162;7.560;2024-03-25T07:35:07;100225.56;;;5.82;83.48
64841;BME280;51307;52.162;7.560;2024-03-25T07:37:34;100233.34;;;5.46;83.87
64841;BME280;51307;52.162;7.560;2024-03-25T07:40:00;100233.84;;;5.79;83.40
64841;BME280;51307;52.162;7.560;2024-03-25T07:42:25;100235.13;;;5.65;83.74
64841;BME280;51307;52.162;7.560;2024-03-25T07:44:51;100245.31;;;5.80;84.19
64841;BME280;51307;52.162;7.560;2024-03-25T07:47:16;100254.28;;;5.20;86.05
64841;BME280;51307;52.162;7.560;2024-03-25T07:49:42;100247.97;;;5.80;83.99
64841;BME280;51307;52.162;7.560;2024-03-25T07:52:07;100242.66;;;5.70;83.29
64841;BME280;51307;52.162;7.560;2024-03-25T07:54:33;100241.72;;;6.09;81.95
64841;BME280;51307;52.162;7.560;2024-03-25T07:56:58;100245.09;;;6.11;81.87
64841;BME280;51307;52.162;7.560;2024-03-25T07:59:24;100244.78;;;6.14;82.31
64841;BME280;51307;52.162;7.560;2024-03-25T08:01:49;100240.25;;;6.24;81.72
64841;BME280;51307;52.162;7.560;2024-03-25T08:04:15;100243.88;;;6.33;81.36
64841;BME280;51307;52.162;7.560;2024-03-25T08:06:40;100245.03;;;5.73;82.10
64841;BME280;51307;52.162;7.560;2024-03-25T08:09:06;100244.19;;;6.20;81.52
64841;BME280;51307;52.162;7.560;2024-03-25T08:11:32;100240.16;;;6.16;80.83
64841;BME280;51307;52.162;7.560;2024-03-25T08:13:57;100248.06;;;6.35;80.30
64841;BME280;51307;52.162;7.560;2024-03-25T08:16:23;100246.63;;;6.41;80.14
64841;BME280;51307;52.162;7.560;2024-03-25T08:18:48;100255.78;;;6.29;79.69
64841;BME280;51307;52.162;7.560;2024-03-25T08:21:15;100250.84;;;6.44;79.45
64841;BME280;51307;52.162;7.560;2024-03-25T08:23:40;100256.34;;;6.60;79.17
64841;BME280;51307;52.162;7.560;2024-03-25T08:26:06;100247.38;;;6.61;79.61
64841;BME280;51307;52.162;7.560;2024-03-25T08:28:32;100249.00;;;6.06;79.09
64841;BME280;51307;52.162;7.560;2024-03-25T08:30:58;100247.28;;;6.53;78.81
64841;BME280;51307;52.162;7.560;2024-03-25T08:33:23;100251.91;;;6.23;79.30
64841;BME280;51307;52.162;7.560;2024-03-25T08:35:49;100247.03;;;6.46;78.58
64841;BME280;51307;52.162;7.560;2024-03-25T08:38:14;100247.31;;;6.71;77.80
64841;BME280;51307;52.162;7.560;2024-03-25T08:40:40;100251.59;;;6.26;78.37
64841;BME280;51307;52.162;7.560;2024-03-25T08:43:06;100246.88;;;6.48;76.79
64841;BME280;51307;52.162;7.560;2024-03-25T08:45:32;100248.03;;;6.73;77.04
64841;BME280;51307;52.162;7.560;2024-03-25T08:47:57;100243.09;;;6.78;76.62
64841;BME280;51307;52.162;7.560;2024-03-25T08:50:23;100255.59;;;6.68;76.69
64841;BME280;51307;52.162;7.560;2024-03-25T08:52:49;100249.00;;;6.72;77.52
64841;BME280;51307;52.162;7.560;2024-03-25T08:55:14;100244.72;;;6.89;76.75
64841;BME280;51307;52.162;7.560;2024-03-25T08:57:40;100244.13;;;6.95;76.16
64841;BME280;51307;52.162;7.560;2024-03-25T09:00:06;100243.25;;;6.77;77.09
64841;BME280;51307;52.162;7.560;2024-03-25T09:02:36;100243.16;;;6.96;76.07
64841;BME280;51307;52.162;7.560;2024-03-25T09:05:02;100251.59;;;6.82;76.05
64841;BME280;51307;52.162;7.560;2024-03-25T09:07:34;100247.19;;;7.00;75.79
64841;BME280;51307;52.162;7.560;2024-03-25T09:09:59;100241.91;;;6.90;76.05
64841;BME280;51307;52.162;7.560;2024-03-25T09:12:44;100242.41;;;7.04;75.62
64841;BME280;51307;52.162;7.560;2024-03-25T09:15:09;100241.94;;;7.08;74.91
64841;BME280;51307;52.162;7.560;2024-03-25T09:17:38;100253.09;;;6.94;74.85
64841;BME280;51307;52.162;7.560;2024-03-25T09:20:04;100246.88;;;7.03;74.68
64841;BME280;51307;52.162;7.560;2024-03-25T09:22:41;100245.13;;;6.66;76.19
64841;BME280;51307;52.162;7.560;2024-03-25T09:25:07;100247.78;;;7.30;73.68
64841;BME280;51307;52.162;7.560;2024-03-25T09:27:32;100249.78;;;7.28;73.58
64841;BME280;51307;52.162;7.560;2024-03-25T09:29:58;100237.69;;;7.34;73.66
64841;BME280;51307;52.162;7.560;2024-03-25T09:32:23;100233.41;;;7.41;73.06
64841;BME280;51307;52.162;7.560;2024-03-25T09:34:51;100236.72;;;7.35;72.01
64841;BME280;51307;52.162;7.560;2024-03-25T09:37:17;100234.41;;;7.58;71.33
64841;BME280;51307;52.162;7.560;2024-03-25T09:39:43;100236.25;;;7.57;71.79
64841;BME280;51307;52.162;7.560;2024-03-25T09:42:14;100246.31;;;7.72;70.16
64841;BME280;51307;52.162;7.560;2024-03-25T09:44:40;100238.75;;;7.59;70.19
64841;BME280;51307;52.162;7.560;2024-03-25T09:47:07;100234.25;;;7.60;68.84
64841;BME280;51307;52.162;7.560;2024-03-25T09:49:33;100243.69;;;7.54;68.60
64841;BME280;51307;52.162;7.560;2024-03-25T09:52:00;100236.81;;;7.69;67.46
64841;BME280;51307;52.162;7.560;2024-03-25T09:54:26;100239.56;;;7.60;67.78
64841;BME280;51307;52.162;7.560;2024-03-25T09:56:52;100235.59;;;7.64;66.29
64841;BME280;51307;52.162;7.560;2024-03-25T09:59:18;100230.66;;;7.69;65.74
64841;BME280;51307;52.162;7.560;2024-03-25T10:01:44;100221.91;;;7.77;65.42
64841;BME280;51307;52.162;7.560;2024-03-25T10:04:09;100227.72;;;7.80;65.01
64841;BME280;51307;52.162;7.560;2024-03-25T10:06:35;100212.28;;;7.84;62.25
64841;BME280;51307;52.162;7.560;2024-03-25T10:09:04;100212.16;;;7.67;60.42
64841;BME280;51307;52.162;7.560;2024-03-25T10:11:32;100221.63;;;7.44;60.07
64841;BME280;51307;52.162;7.560;2024-03-25T10:14:01;100222.81;;;7.67;59.90
64841;BME280;51307;52.162;7.560;2024-03-25T10:16:27;100226.44;;;7.84;60.74
64841;BME280;51307;52.162;7.560;2024-03-25T10:18:53;100230.25;;;8.08;60.50
64841;BME280;51307;52.162;7.560;2024-03-25T10:21:21;100225.81;;;7.90;58.97
64841;BME280;51307;52.162;7.560;2024-03-25T10:23:48;100231.78;;;7.66;59.18
64841;BME280;51307;52.162;7.560;2024-03-25T10:26:30;100229.91;;;7.58;59.02
64841;BME280;51307;52.162;7.560;2024-03-25T10:29:05;100227.25;;;7.58;59.55
64841;BME280;51307;52.162;7.560;2024-03-25T10:31:33;100215.69;;;7.94;59.80
64841;BME280;51307;52.162;7.560;2024-03-25T10:34:00;100225.41;;;8.03;59.67
64841;BME280;51307;52.162;7.560;2024-03-25T10:36:26;100224.06;;;7.81;60.30
64841;BME280;51307;52.162;7.560;2024-03-25T10:38:56;100210.34;;;7.94;60.78
64841;BME280;51307;52.162;7.560;2024-03-25T10:41:23;100219.91;;;8.05;60.91
64841;BME280;51307;52.162;7.560;2024-03-25T10:43:51;100212.13;;;7.85;60.43
64841;BME280;51307;52.162;7.560;2024-03-25T10:46:20;100209.78;;;8.08;59.95
64841;BME280;51307;52.162;7.560;2024-03-25T10:49:21;100219.38;;;8.01;57.86
64841;BME280;51307;52.162;7.560;2024-03-25T10:51:50;100216.72;;;8.01;57.84
64841;BME280;51307;52.162;7.560;2024-03-25T10:54:16;100212.06;;;8.03;58.62
64841;BME280;51307;52.162;7.560;2024-03-25T10:56:43;100214.44;;;8.15;59.20
64841;BME280;51307;52.162;7.560;2024-03-25T10:59:10;100215.97;;;8.17;58.46
64841;BME280;51307;52.162;7.560;2024-03-25T11:01:37;100205.19;;;8.27;58.05
64841;BME280;51307;52.162;7.560;2024-03-25T11:04:04;100203.66;;;7.90;59.22
64841;BME280;51307;52.162;7.560;2024-03-25T11:06:31;100203.13;;;8.13;59.59
64841;BME280;51307;52.162;7.560;2024-03-25T11:08:58;100208.13;;;8.16;59.10
64841;BME280;51307;52.162;7.560;2024-03-25T11:11:31;100201.16;;;8.23;58.99
64841;BME280;51307;52.162;7.560;2024-03-25T11:13:56;100203.06;;;8.04;58.86
64841;BME280;51307;52.162;7.560;2024-03-25T11:16:32;100195.00;;;8.22;58.31
64841;BME280;51307;52.162;7.560;2024-03-25T11:19:02;100190.84;;;8.20;58.00
64841;BME280;51307;52.162;7.560;2024-03-25T11:21:28;100185.41;;;8.38;58.27
64841;BME280;51307;52.162;7.560;2024-03-25T11:23:54;100181.38;;;8.34;58.20
64841;BME280;51307;52.162;7.560;2024-03-25T11:26:25;100180.41;;;8.43;58.26
64841;BME280;51307;52.162;7.560;2024-03-25T11:28:52;100172.44;;;8.51;57.45
64841;BME280;51307;52.162;7.560;2024-03-25T11:31:20;100174.31;;;8.67;57.52
64841;BME280;51307;52.162;7.560;2024-03-25T11:33:47;100170.81;;;8.58;57.14
64841;BME280;51307;52.162;7.560;2024-03-25T11:36:12;100175.00;;;8.61;56.83
64841;BME280;51307;52.162;7.560;2024-03-25T11:38:38;100166.31;;;8.59;55.69
64841;BME280;51307;52.162;7.560;2024-03-25T11:41:07;100165.00;;;8.71;56.37
64841;BME280;51307;52.162;7.560;2024-03-25T11:43:33;100167.03;;;8.78;55.65
64841;BME280;51307;52.162;7.560;2024-03-25T11:45:59;100169.22;;;8.90;55.70
64841;BME280;51307;52.162;7.560;2024-03-25T11:48:24;100152.91;;;8.85;53.94
64841;BME280;51307;52.162;7.560;2024-03-25T11:50:51;100156.81;;;8.73;52.71
64841;BME280;51307;52.162;7.560;2024-03-25T11:53:16;100152.81;;;8.69;52.56
64841;BME280;51307;52.162;7.560;2024-03-25T11:55:46;100154.19;;;8.81;52.98
64841;BME280;51307;52.162;7.560;2024-03-25T11:58:12;100153.50;;;8.71;53.07
64841;BME280;51307;52.162;7.560;2024-03-25T12:00:45;100156.38;;;8.86;52.01
64841;BME280;51307;52.162;7.560;2024-03-25T12:03:13;100142.25;;;9.02;53.52
64841;BME280;51307;52.162;7.560;2024-03-25T12:05:40;100141.91;;;9.13;53.02
64841;BME280;51307;52.162;7.560;2024-03-25T12:08:08;100139.66;;;8.84;50.51
64841;BME280;51307;52.162;7.560;2024-03-25T12:10:36;100131.22;;;9.13;52.30
64841;BME280;51307;52.162;7.560;2024-03-25T12:13:21;100131.06;;;8.98;52.15
64841;BME280;51307;52.162;7.560;2024-03-25T12:15:47;100131.56;;;9.10;51.83
64841;BME280;51307;52.162;7.560;2024-03-25T12:18:14;100126.22;;;9.26;52.13
64841;BME280;51307;52.162;7.560;2024-03-25T12:20:40;100120.84;;;9.35;51.79
64841;BME280;51307;52.162;7.560;2024-03-25T12:23:07;100115.38;;;9.12;51.50
64841;BME280;51307;52.162;7.560;2024-03-25T12:25:33;100107.66;;;9.41;50.90
64841;BME280;51307;52.162;7.560;2024-03-25T12:27:58;100107.03;;;9.31;50.90
64841;BME280;51307;52.162;7.560;2024-03-25T12:30:24;100105.00;;;9.33;50.38
64841;BME280;51307;52.162;7.560;2024-03-25T12:32:50;100095.69;;;9.29;49.95
64841;BME280;51307;52.162;7.560;2024-03-25T12:35:18;100103.13;;;9.58;51.10
64841;BME280;51307;52.162;7.560;2024-03-25T12:37:45;100090.91;;;9.72;50.56
64841;BME280;51307;52.162;7.560;2024-03-25T12:40:13;100093.25;;;9.75;50.67
64841;BME280;51307;52.162;7.560;2024-03-25T12:42:39;100093.84;;;9.21;49.40
64841;BME280;51307;52.162;7.560;2024-03-25T12:45:06;100085.22;;;9.67;48.60
64841;BME280;51307;52.162;7.560;2024-03-25T12:47:32;100085.53;;;9.81;48.84
64841;BME280;51307;52.162;7.560;2024-03-25T12:49:57;100086.25;;;9.66;48.11
64841;BME280;51307;52.162;7.560;2024-03-25T12:52:23;100080.19;;;9.81;49.68
64841;BME280;51307;52.162;7.560;2024-03-25T12:54:49;100071.56;;;10.02;49.49
64841;BME280;51307;52.162;7.560;2024-03-25T12:57:14;100069.09;;;10.00;48.88
64841;BME280;51307;52.162;7.560;2024-03-25T12:59:40;100068.72;;;10.03;48.66